createdAt,value
2022-11-26T00:01:22.054Z,9.35
2022-11-26T00:03:49.818Z,10.07
2022-11-26T00:06:33.397Z,10.52
2022-11-26T00:09:01.101Z,9.93
2022-11-26T00:11:28.370Z,8.00
2022-11-26T00:13:55.357Z,8.23
2022-11-26T00:16:22.346Z,9.15
2022-11-26T00:18:49.265Z,11.27
2022-11-26T00:21:21.360Z,11.05
2022-11-26T00:23:48.401Z,13.65
2022-11-26T00:26:18.019Z,11.60
2022-11-26T00:28:52.273Z,13.43
2022-11-26T00:31:19.189Z,20.80
2022-11-26T00:33:46.183Z,14.13
2022-11-26T00:36:18.518Z,17.15
2022-11-26T00:38:52.501Z,21.58
2022-11-26T00:41:22.607Z,21.85
2022-11-26T00:43:49.891Z,24.25
2022-11-26T00:46:21.497Z,25.60
2022-11-26T00:48:48.722Z,23.62
2022-11-26T00:51:18.838Z,16.62
2022-11-26T00:53:46.717Z,8.75
2022-11-26T00:56:18.770Z,11.05
2022-11-26T00:58:47.054Z,13.60
2022-11-26T01:01:23.551Z,9.13
2022-11-26T01:03:50.921Z,7.87
2022-11-26T01:06:34.519Z,8.32
2022-11-26T01:09:01.907Z,8.65
2022-11-26T01:11:28.798Z,9.48
2022-11-26T01:13:56.124Z,9.27
2022-11-26T01:16:26.358Z,7.57
2022-11-26T01:18:54.960Z,8.15
2022-11-26T01:21:22.949Z,9.77
2022-11-26T01:23:49.865Z,10.15
2022-11-26T01:26:19.150Z,9.07
2022-11-26T01:28:46.188Z,10.02
2022-11-26T01:31:17.399Z,8.73
2022-11-26T01:33:45.127Z,8.65
2022-11-26T01:36:33.095Z,9.73
2022-11-26T01:41:39.950Z,10.25
2022-11-26T01:44:11.181Z,8.65
2022-11-26T01:46:39.038Z,9.57
2022-11-26T01:49:22.226Z,14.65
2022-11-26T01:51:53.838Z,8.90
2022-11-26T01:54:20.783Z,8.45
2022-11-26T01:56:51.626Z,8.63
2022-11-26T01:59:22.795Z,9.85
2022-11-26T02:01:51.506Z,8.32
2022-11-26T02:04:29.354Z,10.75
2022-11-26T02:06:56.837Z,10.15
2022-11-26T02:09:24.678Z,8.32
2022-11-26T02:11:51.556Z,10.30
2022-11-26T02:14:21.526Z,13.35
2022-11-26T02:16:54.469Z,10.32
2022-11-26T02:19:49.183Z,8.60
2022-11-26T02:22:36.990Z,9.20
2022-11-26T02:25:15.989Z,9.93
2022-11-26T02:28:26.377Z,13.27
2022-11-26T02:31:11.406Z,11.50
2022-11-26T02:34:02.026Z,10.77
2022-11-26T02:36:35.271Z,13.13
2022-11-26T02:39:15.020Z,11.75
2022-11-26T02:41:43.656Z,12.43
2022-11-26T02:44:10.898Z,11.63
2022-11-26T02:46:39.446Z,13.73
2022-11-26T02:49:06.872Z,14.38
2022-11-26T02:51:35.073Z,11.48
2022-11-26T02:54:02.250Z,9.60
2022-11-26T02:56:29.759Z,11.70
2022-11-26T02:58:57.411Z,10.77
2022-11-26T03:02:00.986Z,10.90
2022-11-26T03:04:31.407Z,12.45
2022-11-26T03:07:02.557Z,12.02
2022-11-26T03:09:40.410Z,9.77
2022-11-26T03:12:07.719Z,9.85
2022-11-26T03:14:34.800Z,12.00
2022-11-26T03:17:01.854Z,10.05
2022-11-26T03:19:28.732Z,11.70
2022-11-26T03:21:55.643Z,14.40
2022-11-26T03:24:22.548Z,11.93
2022-11-26T03:26:49.421Z,13.02
2022-11-26T03:29:16.311Z,10.38
2022-11-26T03:31:43.236Z,10.45
2022-11-26T03:34:10.127Z,11.52
2022-11-26T03:36:37.015Z,13.62
2022-11-26T03:39:04.136Z,8.75
2022-11-26T03:41:31.138Z,10.18
2022-11-26T03:43:58.091Z,11.15
2022-11-26T03:46:25.293Z,10.68
2022-11-26T03:48:52.210Z,11.18
2022-11-26T03:51:19.067Z,11.50
2022-11-26T03:53:45.999Z,9.85
2022-11-26T03:56:13.001Z,12.85
2022-11-26T03:58:40.161Z,11.38
2022-11-26T04:01:12.464Z,10.95
2022-11-26T04:03:40.075Z,13.00
2022-11-26T04:06:07.563Z,12.02
2022-11-26T04:08:34.450Z,14.35
2022-11-26T04:11:01.574Z,12.10
2022-11-26T04:13:28.479Z,12.73
2022-11-26T04:15:55.356Z,13.05
2022-11-26T04:18:22.298Z,11.35
2022-11-26T04:20:53.047Z,12.35
2022-11-26T04:23:20.559Z,13.48
2022-11-26T04:25:47.419Z,12.43
2022-11-26T04:28:15.357Z,13.95
2022-11-26T04:30:43.213Z,12.75
2022-11-26T04:33:10.273Z,14.38
2022-11-26T04:35:38.146Z,14.15
2022-11-26T04:38:05.037Z,14.65
2022-11-26T04:40:31.976Z,15.80
2022-11-26T04:42:58.886Z,14.18
2022-11-26T04:45:25.952Z,14.27
2022-11-26T04:47:53.140Z,14.82
2022-11-26T04:50:20.652Z,16.33
2022-11-26T04:52:48.673Z,16.62
2022-11-26T04:55:16.566Z,17.10
2022-11-26T04:57:43.662Z,14.87
2022-11-26T05:00:11.506Z,14.77
2022-11-26T05:02:38.441Z,14.18
2022-11-26T05:05:05.649Z,10.90
2022-11-26T05:07:32.748Z,12.95
2022-11-26T05:09:59.765Z,12.82
2022-11-26T05:12:26.629Z,14.55
2022-11-26T05:14:53.573Z,17.48
2022-11-26T05:17:20.473Z,12.50
2022-11-26T05:19:47.360Z,15.30
2022-11-26T05:22:15.151Z,14.30
2022-11-26T05:24:41.985Z,11.82
2022-11-26T05:29:35.981Z,14.63
2022-11-26T05:34:29.742Z,17.95
2022-11-26T05:36:56.595Z,11.25
2022-11-26T05:41:50.160Z,13.88
2022-11-26T05:44:17.065Z,12.48
2022-11-26T05:46:44.016Z,12.00
2022-11-26T05:49:11.046Z,12.35
2022-11-26T05:51:37.971Z,10.95
2022-11-26T05:54:04.953Z,12.75
2022-11-26T05:56:31.813Z,14.20
2022-11-26T06:01:25.346Z,14.20
2022-11-26T06:06:18.978Z,12.75
2022-11-26T06:08:45.884Z,11.32
2022-11-26T06:11:13.715Z,14.07
2022-11-26T06:13:40.742Z,10.65
2022-11-26T06:16:08.371Z,13.20
2022-11-26T06:18:37.450Z,13.45
2022-11-26T06:21:05.881Z,10.18
2022-11-26T06:23:34.178Z,14.68
2022-11-26T06:26:01.273Z,12.05
2022-11-26T06:28:28.186Z,11.68
2022-11-26T06:30:55.082Z,12.48
2022-11-26T06:33:21.910Z,10.98
2022-11-26T06:38:15.505Z,10.63
2022-11-26T06:40:42.397Z,10.30
2022-11-26T06:43:09.306Z,9.65
2022-11-26T06:45:36.309Z,12.02
2022-11-26T06:48:03.308Z,10.75
2022-11-26T06:50:30.206Z,9.48
2022-11-26T06:52:57.060Z,9.88
2022-11-26T06:57:51.962Z,10.27
2022-11-26T07:00:19.516Z,10.45
2022-11-26T07:02:46.444Z,9.52
2022-11-26T07:05:13.340Z,10.82
2022-11-26T07:07:40.646Z,9.38
2022-11-26T07:10:08.437Z,11.75
2022-11-26T07:12:35.337Z,8.02
2022-11-26T07:15:02.245Z,9.73
2022-11-26T07:17:29.546Z,9.10
2022-11-26T07:19:56.459Z,10.20
2022-11-26T07:22:23.314Z,10.27
2022-11-26T07:27:17.140Z,9.63
2022-11-26T07:29:44.139Z,9.05
2022-11-26T07:32:11.294Z,11.70
2022-11-26T07:34:38.392Z,12.23
2022-11-26T07:37:05.438Z,10.77
2022-11-26T07:39:32.355Z,10.38
2022-11-26T07:41:59.304Z,10.23
2022-11-26T07:44:26.171Z,11.23
2022-11-26T07:46:53.064Z,11.95
2022-11-26T07:49:20.054Z,11.10
2022-11-26T07:51:46.932Z,11.77
2022-11-26T07:54:13.811Z,10.40
2022-11-26T07:56:40.743Z,10.85
2022-11-26T07:59:07.621Z,11.60
2022-11-26T08:01:34.621Z,11.15
2022-11-26T08:04:05.411Z,13.25
2022-11-26T08:06:32.508Z,11.18
2022-11-26T08:09:00.291Z,11.35
2022-11-26T08:11:29.132Z,9.48
2022-11-26T08:13:58.760Z,13.45
2022-11-26T08:16:28.634Z,12.27
2022-11-26T08:18:59.443Z,12.90
2022-11-26T08:21:26.901Z,12.27
2022-11-26T08:23:54.623Z,9.88
2022-11-26T08:26:27.377Z,12.30
2022-11-26T08:28:58.029Z,11.50
2022-11-26T08:31:27.935Z,12.05
2022-11-26T08:34:01.368Z,11.90
2022-11-26T08:36:29.107Z,13.07
2022-11-26T08:38:58.528Z,9.73
2022-11-26T08:41:25.494Z,11.25
2022-11-26T08:44:06.284Z,13.38
2022-11-26T08:46:34.482Z,13.25
2022-11-26T08:49:01.369Z,10.80
2022-11-26T08:51:28.357Z,11.95
2022-11-26T08:53:55.214Z,10.38
2022-11-26T08:58:49.247Z,9.60
2022-11-26T09:01:21.928Z,10.75
2022-11-26T09:03:50.372Z,11.77
2022-11-26T09:06:18.358Z,9.48
2022-11-26T09:09:05.252Z,10.07
2022-11-26T09:11:35.098Z,10.52
2022-11-26T09:14:02.810Z,10.27
2022-11-26T09:16:29.856Z,9.75
2022-11-26T09:18:58.880Z,10.68
2022-11-26T09:21:25.737Z,8.90
2022-11-26T09:23:52.585Z,9.98
2022-11-26T09:26:21.505Z,9.45
2022-11-26T09:28:49.112Z,10.73
2022-11-26T09:31:16.744Z,10.20
2022-11-26T09:33:43.864Z,10.57
2022-11-26T09:36:13.188Z,9.18
2022-11-26T09:38:40.967Z,9.00
2022-11-26T09:41:14.089Z,10.00
2022-11-26T09:43:53.276Z,9.50
2022-11-26T09:46:40.800Z,10.40
2022-11-26T09:49:18.239Z,8.80
2022-11-26T09:51:47.507Z,9.50
2022-11-26T09:54:18.512Z,9.20
2022-11-26T09:56:45.385Z,10.13
2022-11-26T09:59:18.015Z,9.45
2022-11-26T10:01:45.199Z,8.63
2022-11-26T10:04:28.789Z,9.32
2022-11-26T10:07:06.558Z,8.05
2022-11-26T10:09:40.810Z,9.52
2022-11-26T10:12:26.623Z,9.50
2022-11-26T10:15:09.575Z,7.37
2022-11-26T10:17:47.360Z,8.45
2022-11-26T10:20:36.810Z,6.90
2022-11-26T10:23:12.853Z,6.60
2022-11-26T10:25:43.608Z,6.35
2022-11-26T10:28:20.545Z,6.43
2022-11-26T10:30:53.499Z,6.60
2022-11-26T10:33:20.904Z,7.47
2022-11-26T10:35:49.986Z,6.28
2022-11-26T10:38:17.732Z,7.18
2022-11-26T10:40:44.633Z,6.50
2022-11-26T10:43:23.783Z,4.82
2022-11-26T10:45:53.118Z,6.43
2022-11-26T10:48:26.661Z,6.50
2022-11-26T10:51:02.727Z,6.80
2022-11-26T10:53:32.780Z,5.15
2022-11-26T10:56:01.131Z,7.05
2022-11-26T10:58:31.438Z,5.28
2022-11-26T11:01:00.801Z,6.95
2022-11-26T11:06:22.040Z,8.02
2022-11-26T11:11:23.518Z,4.80
2022-11-26T11:13:50.465Z,6.30
2022-11-26T11:16:38.836Z,8.02
2022-11-26T11:19:16.808Z,6.65
2022-11-26T11:21:48.140Z,8.82
2022-11-26T11:24:24.254Z,9.27
2022-11-26T11:26:54.942Z,6.15
2022-11-26T11:29:28.898Z,8.88
2022-11-26T11:31:57.703Z,10.23
2022-11-26T11:34:33.991Z,10.73
2022-11-26T11:37:14.842Z,13.32
2022-11-26T11:39:42.796Z,9.32
2022-11-26T11:42:32.432Z,9.88
2022-11-26T11:45:00.301Z,10.55
2022-11-26T11:47:45.587Z,10.45
2022-11-26T11:50:25.041Z,11.32
2022-11-26T11:53:13.588Z,12.70
2022-11-26T11:56:02.797Z,14.80
2022-11-26T11:58:59.215Z,10.98
2022-11-26T12:01:41.591Z,12.25
2022-11-26T12:04:45.799Z,12.65
2022-11-26T12:07:34.145Z,13.55
2022-11-26T12:10:21.133Z,10.80
2022-11-26T12:12:54.149Z,11.93
2022-11-26T12:15:30.536Z,9.32
2022-11-26T12:18:24.405Z,11.98
2022-11-26T12:20:55.436Z,13.70
2022-11-26T12:23:45.411Z,9.60
2022-11-26T12:26:26.786Z,14.30
2022-11-26T12:29:18.987Z,12.82
2022-11-26T12:31:49.400Z,11.85
2022-11-26T12:34:32.275Z,13.70
2022-11-26T12:37:13.172Z,11.93
2022-11-26T12:39:58.857Z,13.82
2022-11-26T12:42:28.372Z,12.18
2022-11-26T12:44:57.838Z,10.98
2022-11-26T12:47:32.368Z,13.43
2022-11-26T12:50:02.250Z,13.62
2022-11-26T12:52:41.108Z,12.40
2022-11-26T12:55:21.623Z,12.27
2022-11-26T12:57:53.551Z,14.57
2022-11-26T13:00:36.028Z,12.43
2022-11-26T13:03:05.875Z,11.18
2022-11-26T13:05:56.279Z,14.60
2022-11-26T13:08:52.157Z,13.70
2022-11-26T13:11:34.943Z,13.65
2022-11-26T13:14:22.505Z,12.98
2022-11-26T13:17:02.905Z,12.13
2022-11-26T13:19:42.045Z,12.48
2022-11-26T13:22:24.991Z,15.05
2022-11-26T13:24:54.917Z,12.40
2022-11-26T13:27:40.189Z,11.75
2022-11-26T13:30:24.205Z,14.30
2022-11-26T13:32:50.994Z,11.30
2022-11-26T13:38:21.211Z,12.20
2022-11-26T13:41:08.481Z,13.67
2022-11-26T13:43:53.717Z,13.20
2022-11-26T13:46:29.461Z,12.93
2022-11-26T13:48:56.387Z,13.70
2022-11-26T13:53:56.089Z,13.45
2022-11-26T13:56:26.415Z,13.07
2022-11-26T13:59:00.296Z,13.15
2022-11-26T14:01:37.071Z,12.37
2022-11-26T14:04:07.985Z,14.35
2022-11-26T14:06:35.398Z,10.40
2022-11-26T14:09:03.069Z,14.30
2022-11-26T14:11:41.957Z,12.90
2022-11-26T14:14:24.088Z,14.05
2022-11-26T14:17:03.259Z,14.40
2022-11-26T14:19:45.071Z,13.45
2022-11-26T14:22:11.880Z,14.05
2022-11-26T14:27:21.612Z,11.48
2022-11-26T14:29:54.382Z,11.02
2022-11-26T14:32:24.240Z,11.30
2022-11-26T14:34:56.423Z,12.63
2022-11-26T14:37:32.241Z,14.02
2022-11-26T14:40:23.305Z,15.23
2022-11-26T14:43:06.835Z,14.05
2022-11-26T14:45:33.891Z,13.62
2022-11-26T14:48:02.508Z,11.50
2022-11-26T14:50:30.740Z,12.63
2022-11-26T14:53:04.061Z,13.73
2022-11-26T14:55:31.838Z,12.82
2022-11-26T14:58:12.597Z,16.45
2022-11-26T15:00:39.553Z,13.55
2022-11-26T15:03:25.599Z,14.45
2022-11-26T15:05:52.580Z,11.32
2022-11-26T15:08:20.599Z,14.90
2022-11-26T15:11:03.345Z,13.95
2022-11-26T15:13:38.716Z,15.65
2022-11-26T15:16:27.418Z,24.98
2022-11-26T15:18:54.772Z,17.98
2022-11-26T15:21:24.656Z,15.60
2022-11-26T15:23:52.089Z,19.52
2022-11-26T15:26:20.007Z,14.63
2022-11-26T15:28:46.902Z,14.82
2022-11-26T15:31:13.906Z,13.02
2022-11-26T15:33:41.639Z,13.60
2022-11-26T15:36:14.258Z,13.10
2022-11-26T15:39:03.243Z,15.13
2022-11-26T15:41:30.746Z,18.48
2022-11-26T15:44:01.360Z,14.48
2022-11-26T15:46:29.609Z,16.52
2022-11-26T15:49:06.039Z,14.27
2022-11-26T15:51:41.195Z,12.47
2022-11-26T15:54:49.726Z,13.18
2022-11-26T15:57:26.816Z,12.68
2022-11-26T15:59:56.994Z,15.40
2022-11-26T16:02:25.740Z,14.40
2022-11-26T16:04:55.003Z,14.93
2022-11-26T16:07:27.792Z,13.80
2022-11-26T16:10:16.805Z,15.82
2022-11-26T16:12:45.146Z,15.30
2022-11-26T16:15:23.934Z,15.85
2022-11-26T16:17:51.297Z,18.85
2022-11-26T16:20:21.983Z,14.57
2022-11-26T16:22:53.540Z,17.70
2022-11-26T16:25:31.925Z,14.02
2022-11-26T16:28:10.867Z,15.38
2022-11-26T16:30:38.925Z,15.73
2022-11-26T16:33:06.675Z,14.75
2022-11-26T16:35:49.144Z,16.90
2022-11-26T16:38:22.103Z,14.30
2022-11-26T16:40:49.905Z,16.27
2022-11-26T16:43:16.905Z,13.43
2022-11-26T16:45:43.904Z,14.85
2022-11-26T16:48:22.815Z,14.18
2022-11-26T16:50:49.738Z,15.95
2022-11-26T16:53:16.726Z,14.68
2022-11-26T16:55:43.603Z,17.62
2022-11-26T16:58:26.000Z,11.75
2022-11-26T17:00:53.114Z,14.70
2022-11-26T17:03:22.838Z,12.45
2022-11-26T17:05:52.789Z,14.77
2022-11-26T17:08:20.019Z,14.40
2022-11-26T17:10:47.761Z,15.50
2022-11-26T17:13:15.604Z,16.10
2022-11-26T17:15:43.346Z,13.30
2022-11-26T17:18:19.109Z,13.95
2022-11-26T17:20:46.022Z,14.27
2022-11-26T17:23:13.286Z,15.13
2022-11-26T17:25:40.366Z,18.33
2022-11-26T17:28:14.030Z,13.68
2022-11-26T17:30:41.960Z,16.08
2022-11-26T17:33:09.532Z,14.90
2022-11-26T17:35:36.747Z,18.77
2022-11-26T17:38:04.996Z,16.00
2022-11-26T17:40:32.694Z,15.20
2022-11-26T17:42:59.650Z,15.13
2022-11-26T17:45:26.528Z,12.98
2022-11-26T17:47:53.577Z,11.80
2022-11-26T17:50:26.260Z,14.23
2022-11-26T17:52:54.762Z,14.63
2022-11-26T17:55:26.008Z,14.90
2022-11-26T17:57:53.122Z,12.75
2022-11-26T18:00:24.754Z,12.95
2022-11-26T18:02:51.950Z,12.48
2022-11-26T18:05:18.959Z,13.30
2022-11-26T18:07:46.020Z,13.65
2022-11-26T18:10:15.456Z,15.18
2022-11-26T18:12:43.624Z,12.63
2022-11-26T18:15:17.918Z,12.77
2022-11-26T18:17:52.835Z,12.52
2022-11-26T18:20:21.654Z,12.37
2022-11-26T18:22:53.371Z,13.68
2022-11-26T18:25:20.501Z,10.82
2022-11-26T18:27:47.420Z,11.93
2022-11-26T18:30:14.544Z,10.60
2022-11-26T18:32:41.433Z,13.40
2022-11-26T18:35:08.719Z,12.77
2022-11-26T18:37:36.876Z,13.43
2022-11-26T18:40:04.630Z,11.95
2022-11-26T18:42:38.990Z,13.10
2022-11-26T18:45:08.156Z,11.35
2022-11-26T18:47:35.064Z,11.57
2022-11-26T18:50:01.991Z,11.80
2022-11-26T18:52:28.840Z,14.15
2022-11-26T18:54:55.732Z,11.00
2022-11-26T18:57:22.756Z,12.15
2022-11-26T18:59:50.719Z,11.12
2022-11-26T19:02:17.904Z,12.70
2022-11-26T19:04:44.884Z,11.48
2022-11-26T19:07:12.924Z,13.60
2022-11-26T19:09:40.482Z,10.93
2022-11-26T19:12:07.733Z,13.68
2022-11-26T19:14:34.604Z,12.45
2022-11-26T19:17:01.536Z,10.20
2022-11-26T19:19:28.444Z,10.88
2022-11-26T19:22:01.096Z,12.48
2022-11-26T19:24:28.863Z,12.32
2022-11-26T19:26:55.866Z,11.95
2022-11-26T19:29:22.845Z,11.77
2022-11-26T19:31:49.804Z,13.55
2022-11-26T19:34:16.972Z,11.20
2022-11-26T19:36:48.637Z,13.73
2022-11-26T19:39:16.452Z,14.25
2022-11-26T19:41:43.395Z,12.43
2022-11-26T19:44:10.296Z,13.82
2022-11-26T19:46:40.946Z,12.77
2022-11-26T19:49:12.953Z,12.35
2022-11-26T19:51:40.867Z,12.25
2022-11-26T19:54:07.960Z,11.82
2022-11-26T19:56:35.156Z,14.30
2022-11-26T19:59:02.512Z,12.18
2022-11-26T20:01:31.413Z,11.32
2022-11-26T20:04:04.284Z,14.77
2022-11-26T20:06:32.828Z,15.77
2022-11-26T20:08:59.755Z,13.77
2022-11-26T20:11:27.720Z,13.93
2022-11-26T20:13:55.582Z,11.43
2022-11-26T20:16:26.265Z,12.68
2022-11-26T20:18:53.373Z,13.77
2022-11-26T20:21:26.227Z,12.10
2022-11-26T20:23:54.442Z,13.52
2022-11-26T20:26:28.075Z,14.77
2022-11-26T20:28:55.830Z,13.95
2022-11-26T20:31:24.220Z,13.82
2022-11-26T20:33:55.209Z,14.98
2022-11-26T20:36:23.320Z,14.87
2022-11-26T20:38:59.147Z,17.60
2022-11-26T20:41:26.744Z,14.65
2022-11-26T20:43:58.455Z,15.05
2022-11-26T20:46:27.772Z,14.15
2022-11-26T20:48:54.842Z,15.57
2022-11-26T20:51:22.340Z,15.32
2022-11-26T20:53:50.861Z,17.27
2022-11-26T20:56:20.268Z,13.38
2022-11-26T20:58:48.468Z,14.25
2022-11-26T21:01:20.702Z,11.07
2022-11-26T21:03:48.362Z,14.10
2022-11-26T21:06:16.592Z,13.52
2022-11-26T21:08:43.588Z,12.25
2022-11-26T21:11:11.634Z,13.95
2022-11-26T21:13:39.003Z,14.15
2022-11-26T21:16:08.112Z,13.77
2022-11-26T21:18:34.987Z,14.35
2022-11-26T21:21:11.103Z,13.55
2022-11-26T21:23:39.376Z,12.43
2022-11-26T21:26:11.219Z,13.02
2022-11-26T21:28:38.596Z,15.77
2022-11-26T21:31:12.082Z,14.82
2022-11-26T21:33:39.014Z,14.02
2022-11-26T21:36:10.544Z,15.65
2022-11-26T21:38:37.645Z,15.02
2022-11-26T21:41:12.762Z,18.85
2022-11-26T21:43:40.331Z,15.27
2022-11-26T21:46:09.919Z,16.95
2022-11-26T21:48:36.855Z,15.93
2022-11-26T21:51:08.132Z,15.27
2022-11-26T21:53:35.131Z,18.05
2022-11-26T21:56:18.694Z,16.33
2022-11-26T21:58:45.707Z,17.67
2022-11-26T22:01:15.082Z,14.75
2022-11-26T22:03:47.288Z,16.42
2022-11-26T22:06:14.830Z,16.23
2022-11-26T22:08:42.137Z,16.40
2022-11-26T22:11:16.989Z,19.08
2022-11-26T22:13:43.955Z,16.60
2022-11-26T22:16:12.615Z,15.00
2022-11-26T22:18:41.649Z,15.55
2022-11-26T22:21:14.625Z,15.23
2022-11-26T22:23:41.553Z,19.05
2022-11-26T22:26:08.610Z,16.83
2022-11-26T22:28:35.722Z,14.85
2022-11-26T22:31:21.963Z,15.43
2022-11-26T22:33:50.116Z,15.55
2022-11-26T22:36:17.009Z,15.70
2022-11-26T22:38:43.958Z,14.95
2022-11-26T22:41:13.093Z,13.93
2022-11-26T22:43:40.621Z,16.30
2022-11-26T22:46:11.118Z,14.60
2022-11-26T22:48:38.358Z,15.27
2022-11-26T22:51:05.657Z,14.65
2022-11-26T22:53:35.497Z,15.80
2022-11-26T22:56:04.160Z,15.10
2022-11-26T22:58:32.122Z,15.75
2022-11-26T23:01:06.674Z,15.93
2022-11-26T23:03:36.084Z,14.25
2022-11-26T23:06:05.495Z,14.57
2022-11-26T23:08:33.057Z,12.70
2022-11-26T23:11:05.517Z,14.60
2022-11-26T23:13:32.443Z,13.60
2022-11-26T23:15:59.453Z,13.68
2022-11-26T23:18:26.390Z,14.87
2022-11-26T23:21:03.922Z,14.75
2022-11-26T23:23:30.805Z,13.40
2022-11-26T23:25:57.650Z,15.60
2022-11-26T23:28:24.543Z,15.35
2022-11-26T23:30:51.438Z,17.70
2022-11-26T23:33:18.291Z,13.55
2022-11-26T23:35:45.156Z,13.27
2022-11-26T23:38:12.043Z,15.38
2022-11-26T23:40:38.965Z,14.27
2022-11-26T23:43:08.619Z,14.38
2022-11-26T23:45:35.757Z,15.18
2022-11-26T23:48:02.604Z,14.55
2022-11-26T23:50:30.264Z,14.00
2022-11-26T23:52:57.132Z,11.50
2022-11-26T23:55:24.012Z,14.32
2022-11-26T23:57:50.894Z,15.80
